sensor_id;sensor_type;location;lat;lon;timestamp;P1;durP1;ratioP1;P2;durP2;ratioP2
38717;SDS011;24468;52.128;9.278;2022-08-01T00:01:23;9.20;;;2.65;;
38717;SDS011;24468;52.128;9.278;2022-08-01T00:03:49;10.65;;;3.15;;
38717;SDS011;24468;52.128;9.278;2022-08-01T00:06:14;5.82;;;2.85;;
38717;SDS011;24468;52.128;9.278;2022-08-01T00:08:40;8.00;;;2.55;;
38717;SDS011;24468;52.128;9.278;2022-08-01T00:11:05;8.48;;;3.65;;
38717;SDS011;24468;52.128;9.278;2022-08-01T00:13:31;8.57;;;3.35;;
38717;SDS011;24468;52.128;9.278;2022-08-01T00:15:56;5.75;;;3.22;;
38717;SDS011;24468;52.128;9.278;2022-08-01T00:18:22;10.43;;;3.97;;
38717;SDS011;24468;52.128;9.278;2022-08-01T00:20:48;8.45;;;4.18;;
38717;SDS011;24468;52.128;9.278;2022-08-01T00:23:13;6.15;;;3.70;;
38717;SDS011;24468;52.128;9.278;2022-08-01T00:25:39;6.43;;;3.25;;
38717;SDS011;24468;52.128;9.278;2022-08-01T00:28:04;4.07;;;2.88;;
38717;SDS011;24468;52.128;9.278;2022-08-01T00:30:33;3.70;;;3.08;;
38717;SDS011;24468;52.128;9.278;2022-08-01T00:32:59;6.00;;;2.83;;
38717;SDS011;24468;52.128;9.278;2022-08-01T00:35:26;3.47;;;3.17;;
38717;SDS011;24468;52.128;9.278;2022-08-01T00:37:52;3.17;;;2.63;;
38717;SDS011;24468;52.128;9.278;2022-08-01T00:40:17;4.18;;;2.10;;
38717;SDS011;24468;52.128;9.278;2022-08-01T00:42:43;4.03;;;1.98;;
38717;SDS011;24468;52.128;9.278;2022-08-01T00:45:08;4.30;;;1.60;;
38717;SDS011;24468;52.128;9.278;2022-08-01T00:47:35;1.70;;;1.60;;
38717;SDS011;24468;52.128;9.278;2022-08-01T00:50:00;3.28;;;2.03;;
38717;SDS011;24468;52.128;9.278;2022-08-01T00:52:32;3.22;;;1.90;;
38717;SDS011;24468;52.128;9.278;2022-08-01T00:54:58;2.75;;;1.80;;
38717;SDS011;24468;52.128;9.278;2022-08-01T00:57:24;2.88;;;2.22;;
38717;SDS011;24468;52.128;9.278;2022-08-01T00:59:50;4.57;;;2.97;;
38717;SDS011;24468;52.128;9.278;2022-08-01T01:02:17;4.35;;;2.50;;
38717;SDS011;24468;52.128;9.278;2022-08-01T01:04:43;3.88;;;2.80;;
38717;SDS011;24468;52.128;9.278;2022-08-01T01:07:10;4.63;;;2.60;;
38717;SDS011;24468;52.128;9.278;2022-08-01T01:09:46;4.55;;;3.17;;
38717;SDS011;24468;52.128;9.278;2022-08-01T01:12:45;3.78;;;2.65;;
38717;SDS011;24468;52.128;9.278;2022-08-01T01:18:23;2.58;;;2.38;;
38717;SDS011;24468;52.128;9.278;2022-08-01T01:21:24;4.85;;;3.72;;
38717;SDS011;24468;52.128;9.278;2022-08-01T01:27:51;3.58;;;2.55;;
38717;SDS011;24468;52.128;9.278;2022-08-01T01:30:37;3.00;;;2.80;;
38717;SDS011;24468;52.128;9.278;2022-08-01T01:33:06;6.38;;;3.15;;
38717;SDS011;24468;52.128;9.278;2022-08-01T01:35:35;11.00;;;3.35;;
38717;SDS011;24468;52.128;9.278;2022-08-01T01:38:09;6.20;;;2.55;;
38717;SDS011;24468;52.128;9.278;2022-08-01T01:43:07;3.95;;;3.00;;
38717;SDS011;24468;52.128;9.278;2022-08-01T01:45:36;3.47;;;2.95;;
38717;SDS011;24468;52.128;9.278;2022-08-01T01:48:03;3.70;;;2.70;;
38717;SDS011;24468;52.128;9.278;2022-08-01T01:50:31;4.45;;;3.10;;
38717;SDS011;24468;52.128;9.278;2022-08-01T01:52:57;3.60;;;3.08;;
38717;SDS011;24468;52.128;9.278;2022-08-01T01:55:24;5.55;;;2.78;;
38717;SDS011;24468;52.128;9.278;2022-08-01T01:57:51;3.58;;;2.67;;
38717;SDS011;24468;52.128;9.278;2022-08-01T02:00:18;6.53;;;2.78;;
38717;SDS011;24468;52.128;9.278;2022-08-01T02:02:45;3.20;;;2.90;;
38717;SDS011;24468;52.128;9.278;2022-08-01T02:05:11;4.43;;;2.47;;
38717;SDS011;24468;52.128;9.278;2022-08-01T02:07:38;4.88;;;2.25;;
38717;SDS011;24468;52.128;9.278;2022-08-01T02:10:05;4.55;;;2.40;;
38717;SDS011;24468;52.128;9.278;2022-08-01T02:12:34;4.32;;;2.80;;
38717;SDS011;24468;52.128;9.278;2022-08-01T02:15:04;4.78;;;2.38;;
38717;SDS011;24468;52.128;9.278;2022-08-01T02:17:30;4.00;;;2.58;;
38717;SDS011;24468;52.128;9.278;2022-08-01T02:19:57;4.55;;;2.95;;
38717;SDS011;24468;52.128;9.278;2022-08-01T02:22:34;2.95;;;2.38;;
38717;SDS011;24468;52.128;9.278;2022-08-01T02:25:20;4.32;;;2.40;;
38717;SDS011;24468;52.128;9.278;2022-08-01T02:28:03;6.53;;;2.67;;
38717;SDS011;24468;52.128;9.278;2022-08-01T02:30:34;3.50;;;2.50;;
38717;SDS011;24468;52.128;9.278;2022-08-01T02:33:08;3.35;;;2.40;;
38717;SDS011;24468;52.128;9.278;2022-08-01T02:35:43;4.45;;;2.10;;
38717;SDS011;24468;52.128;9.278;2022-08-01T02:38:15;3.60;;;2.72;;
38717;SDS011;24468;52.128;9.278;2022-08-01T02:40:43;3.20;;;2.90;;
38717;SDS011;24468;52.128;9.278;2022-08-01T02:43:12;4.75;;;2.10;;
38717;SDS011;24468;52.128;9.278;2022-08-01T02:45:45;3.00;;;1.90;;
38717;SDS011;24468;52.128;9.278;2022-08-01T02:48:15;4.82;;;1.95;;
38717;SDS011;24468;52.128;9.278;2022-08-01T02:50:45;5.15;;;2.17;;
38717;SDS011;24468;52.128;9.278;2022-08-01T02:53:13;3.88;;;1.92;;
38717;SDS011;24468;52.128;9.278;2022-08-01T02:55:42;3.10;;;2.15;;
38717;SDS011;24468;52.128;9.278;2022-08-01T02:58:12;2.85;;;1.92;;
38717;SDS011;24468;52.128;9.278;2022-08-01T03:00:42;2.30;;;1.85;;
38717;SDS011;24468;52.128;9.278;2022-08-01T03:03:09;4.07;;;2.50;;
38717;SDS011;24468;52.128;9.278;2022-08-01T03:05:36;3.03;;;2.00;;
38717;SDS011;24468;52.128;9.278;2022-08-01T03:08:04;2.22;;;1.85;;
38717;SDS011;24468;52.128;9.278;2022-08-01T03:10:33;1.77;;;1.40;;
38717;SDS011;24468;52.128;9.278;2022-08-01T03:13:03;3.65;;;1.95;;
38717;SDS011;24468;52.128;9.278;2022-08-01T03:15:32;2.40;;;1.52;;
38717;SDS011;24468;52.128;9.278;2022-08-01T03:18:01;1.92;;;1.80;;
38717;SDS011;24468;52.128;9.278;2022-08-01T03:20:30;5.35;;;1.40;;
38717;SDS011;24468;52.128;9.278;2022-08-01T03:22:59;1.70;;;1.60;;
38717;SDS011;24468;52.128;9.278;2022-08-01T03:27:56;2.00;;;1.35;;
38717;SDS011;24468;52.128;9.278;2022-08-01T03:30:26;4.97;;;1.75;;
38717;SDS011;24468;52.128;9.278;2022-08-01T03:32:52;3.78;;;2.00;;
38717;SDS011;24468;52.128;9.278;2022-08-01T03:35:19;1.52;;;1.40;;
38717;SDS011;24468;52.128;9.278;2022-08-01T03:37:47;2.10;;;1.90;;
38717;SDS011;24468;52.128;9.278;2022-08-01T03:40:20;2.60;;;1.75;;
38717;SDS011;24468;52.128;9.278;2022-08-01T03:43:02;2.17;;;1.98;;
38717;SDS011;24468;52.128;9.278;2022-08-01T03:45:36;5.30;;;2.70;;
38717;SDS011;24468;52.128;9.278;2022-08-01T03:48:09;2.38;;;2.17;;
38717;SDS011;24468;52.128;9.278;2022-08-01T03:50:42;2.85;;;2.40;;
38717;SDS011;24468;52.128;9.278;2022-08-01T03:53:13;4.78;;;2.95;;
38717;SDS011;24468;52.128;9.278;2022-08-01T03:55:41;3.47;;;2.55;;
38717;SDS011;24468;52.128;9.278;2022-08-01T03:58:08;2.55;;;2.08;;
38717;SDS011;24468;52.128;9.278;2022-08-01T04:00:36;4.70;;;2.92;;
38717;SDS011;24468;52.128;9.278;2022-08-01T04:03:09;2.83;;;2.58;;
38717;SDS011;24468;52.128;9.278;2022-08-01T04:05:37;2.40;;;2.20;;
38717;SDS011;24468;52.128;9.278;2022-08-01T04:08:05;3.00;;;2.70;;
38717;SDS011;24468;52.128;9.278;2022-08-01T04:10:30;4.03;;;2.63;;
38717;SDS011;24468;52.128;9.278;2022-08-01T04:12:56;4.13;;;2.65;;
38717;SDS011;24468;52.128;9.278;2022-08-01T04:15:22;4.00;;;2.80;;
38717;SDS011;24468;52.128;9.278;2022-08-01T04:17:48;3.80;;;2.60;;
38717;SDS011;24468;52.128;9.278;2022-08-01T04:20:14;2.97;;;2.63;;
38717;SDS011;24468;52.128;9.278;2022-08-01T04:22:40;2.03;;;1.88;;
38717;SDS011;24468;52.128;9.278;2022-08-01T04:25:09;2.40;;;2.20;;
38717;SDS011;24468;52.128;9.278;2022-08-01T04:27:43;2.30;;;2.10;;
38717;SDS011;24468;52.128;9.278;2022-08-01T04:30:14;3.03;;;1.75;;
38717;SDS011;24468;52.128;9.278;2022-08-01T04:32:42;2.10;;;1.88;;
38717;SDS011;24468;52.128;9.278;2022-08-01T04:35:10;2.28;;;2.08;;
38717;SDS011;24468;52.128;9.278;2022-08-01T04:37:41;6.13;;;2.90;;
38717;SDS011;24468;52.128;9.278;2022-08-01T04:40:10;2.58;;;2.00;;
38717;SDS011;24468;52.128;9.278;2022-08-01T04:42:37;2.75;;;1.95;;
38717;SDS011;24468;52.128;9.278;2022-08-01T04:45:03;2.95;;;1.73;;
38717;SDS011;24468;52.128;9.278;2022-08-01T04:47:29;2.00;;;1.75;;
38717;SDS011;24468;52.128;9.278;2022-08-01T04:49:55;2.78;;;1.60;;
38717;SDS011;24468;52.128;9.278;2022-08-01T04:52:21;1.75;;;1.65;;
38717;SDS011;24468;52.128;9.278;2022-08-01T04:54:47;3.15;;;1.70;;
38717;SDS011;24468;52.128;9.278;2022-08-01T04:57:13;7.47;;;2.28;;
38717;SDS011;24468;52.128;9.278;2022-08-01T04:59:41;3.97;;;2.20;;
38717;SDS011;24468;52.128;9.278;2022-08-01T05:02:12;4.43;;;2.00;;
38717;SDS011;24468;52.128;9.278;2022-08-01T05:04:43;3.30;;;2.20;;
38717;SDS011;24468;52.128;9.278;2022-08-01T05:07:10;3.28;;;2.80;;
38717;SDS011;24468;52.128;9.278;2022-08-01T05:09:37;5.55;;;2.15;;
38717;SDS011;24468;52.128;9.278;2022-08-01T05:12:06;4.38;;;2.70;;
38717;SDS011;24468;52.128;9.278;2022-08-01T05:14:33;3.35;;;2.50;;
38717;SDS011;24468;52.128;9.278;2022-08-01T05:16:59;4.85;;;2.70;;
38717;SDS011;24468;52.128;9.278;2022-08-01T05:19:28;3.30;;;2.33;;
38717;SDS011;24468;52.128;9.278;2022-08-01T05:21:57;4.20;;;2.83;;
38717;SDS011;24468;52.128;9.278;2022-08-01T05:24:25;3.72;;;2.50;;
38717;SDS011;24468;52.128;9.278;2022-08-01T05:26:53;3.90;;;2.90;;
38717;SDS011;24468;52.128;9.278;2022-08-01T05:29:20;5.40;;;2.97;;
38717;SDS011;24468;52.128;9.278;2022-08-01T05:31:45;3.13;;;2.92;;
38717;SDS011;24468;52.128;9.278;2022-08-01T05:34:11;3.50;;;3.20;;
38717;SDS011;24468;52.128;9.278;2022-08-01T05:36:36;4.15;;;2.92;;
38717;SDS011;24468;52.128;9.278;2022-08-01T05:39:02;3.80;;;3.50;;
38717;SDS011;24468;52.128;9.278;2022-08-01T05:41:29;3.80;;;3.35;;
38717;SDS011;24468;52.128;9.278;2022-08-01T05:43:55;3.80;;;3.33;;
38717;SDS011;24468;52.128;9.278;2022-08-01T05:46:20;3.10;;;2.80;;
38717;SDS011;24468;52.128;9.278;2022-08-01T05:48:46;3.85;;;3.30;;
38717;SDS011;24468;52.128;9.278;2022-08-01T05:51:11;3.10;;;2.80;;
38717;SDS011;24468;52.128;9.278;2022-08-01T05:53:37;5.13;;;2.88;;
38717;SDS011;24468;52.128;9.278;2022-08-01T05:56:03;5.63;;;2.80;;
38717;SDS011;24468;52.128;9.278;2022-08-01T05:58:28;2.95;;;1.95;;
38717;SDS011;24468;52.128;9.278;2022-08-01T06:00:54;2.47;;;1.98;;
38717;SDS011;24468;52.128;9.278;2022-08-01T06:03:20;2.45;;;1.70;;
38717;SDS011;24468;52.128;9.278;2022-08-01T06:05:45;1.77;;;1.67;;
38717;SDS011;24468;52.128;9.278;2022-08-01T06:08:11;2.15;;;1.63;;
38717;SDS011;24468;52.128;9.278;2022-08-01T06:10:37;1.55;;;1.45;;
38717;SDS011;24468;52.128;9.278;2022-08-01T06:13:02;2.42;;;1.75;;
38717;SDS011;24468;52.128;9.278;2022-08-01T06:15:31;1.95;;;1.60;;
38717;SDS011;24468;52.128;9.278;2022-08-01T06:17:57;2.42;;;1.73;;
38717;SDS011;24468;52.128;9.278;2022-08-01T06:20:23;2.55;;;1.50;;
38717;SDS011;24468;52.128;9.278;2022-08-01T06:22:49;2.30;;;1.80;;
38717;SDS011;24468;52.128;9.278;2022-08-01T06:25:16;3.83;;;1.73;;
38717;SDS011;24468;52.128;9.278;2022-08-01T06:27:43;3.47;;;1.90;;
38717;SDS011;24468;52.128;9.278;2022-08-01T06:30:09;4.43;;;1.73;;
38717;SDS011;24468;52.128;9.278;2022-08-01T06:32:35;1.63;;;1.52;;
38717;SDS011;24468;52.128;9.278;2022-08-01T06:35:01;3.15;;;1.17;;
38717;SDS011;24468;52.128;9.278;2022-08-01T06:37:30;3.17;;;1.70;;
38717;SDS011;24468;52.128;9.278;2022-08-01T06:40:00;1.23;;;1.15;;
38717;SDS011;24468;52.128;9.278;2022-08-01T06:42:34;2.60;;;0.93;;
38717;SDS011;24468;52.128;9.278;2022-08-01T06:45:09;2.20;;;0.82;;
38717;SDS011;24468;52.128;9.278;2022-08-01T06:47:40;2.30;;;1.10;;
38717;SDS011;24468;52.128;9.278;2022-08-01T06:50:08;0.98;;;0.95;;
38717;SDS011;24468;52.128;9.278;2022-08-01T06:52:34;2.75;;;1.20;;
38717;SDS011;24468;52.128;9.278;2022-08-01T06:55:01;3.92;;;1.75;;
38717;SDS011;24468;52.128;9.278;2022-08-01T06:57:27;4.20;;;1.60;;
38717;SDS011;24468;52.128;9.278;2022-08-01T06:59:54;2.55;;;1.55;;
38717;SDS011;24468;52.128;9.278;2022-08-01T07:02:20;2.55;;;1.48;;
38717;SDS011;24468;52.128;9.278;2022-08-01T07:04:47;0.95;;;0.93;;
38717;SDS011;24468;52.128;9.278;2022-08-01T07:07:12;1.13;;;1.02;;
38717;SDS011;24468;52.128;9.278;2022-08-01T07:09:38;1.20;;;1.10;;
38717;SDS011;24468;52.128;9.278;2022-08-01T07:12:06;3.63;;;1.05;;
38717;SDS011;24468;52.128;9.278;2022-08-01T07:14:32;1.00;;;0.60;;
38717;SDS011;24468;52.128;9.278;2022-08-01T07:16:57;3.95;;;1.13;;
38717;SDS011;24468;52.128;9.278;2022-08-01T07:19:23;2.10;;;0.85;;
38717;SDS011;24468;52.128;9.278;2022-08-01T07:21:49;3.88;;;0.88;;
38717;SDS011;24468;52.128;9.278;2022-08-01T07:24:14;2.28;;;1.05;;
38717;SDS011;24468;52.128;9.278;2022-08-01T07:26:41;1.85;;;1.20;;
38717;SDS011;24468;52.128;9.278;2022-08-01T07:29:08;1.73;;;1.63;;
38717;SDS011;24468;52.128;9.278;2022-08-01T07:31:33;2.30;;;0.93;;
38717;SDS011;24468;52.128;9.278;2022-08-01T07:33:59;1.42;;;1.33;;
38717;SDS011;24468;52.128;9.278;2022-08-01T07:36:24;4.10;;;1.40;;
38717;SDS011;24468;52.128;9.278;2022-08-01T07:38:50;1.50;;;1.40;;
38717;SDS011;24468;52.128;9.278;2022-08-01T07:41:16;1.48;;;1.10;;
38717;SDS011;24468;52.128;9.278;2022-08-01T07:43:41;1.10;;;1.00;;
38717;SDS011;24468;52.128;9.278;2022-08-01T07:46:07;1.55;;;1.45;;
38717;SDS011;24468;52.128;9.278;2022-08-01T07:48:33;3.13;;;1.40;;
38717;SDS011;24468;52.128;9.278;2022-08-01T07:50:58;2.03;;;1.55;;
38717;SDS011;24468;52.128;9.278;2022-08-01T07:53:24;1.77;;;1.67;;
38717;SDS011;24468;52.128;9.278;2022-08-01T07:55:50;2.45;;;1.60;;
38717;SDS011;24468;52.128;9.278;2022-08-01T07:58:16;1.83;;;1.73;;
38717;SDS011;24468;52.128;9.278;2022-08-01T08:00:42;2.42;;;1.50;;
38717;SDS011;24468;52.128;9.278;2022-08-01T08:03:08;2.80;;;1.92;;
38717;SDS011;24468;52.128;9.278;2022-08-01T08:05:34;3.63;;;2.13;;
38717;SDS011;24468;52.128;9.278;2022-08-01T08:08:01;2.10;;;1.88;;
38717;SDS011;24468;52.128;9.278;2022-08-01T08:10:30;2.50;;;1.80;;
38717;SDS011;24468;52.128;9.278;2022-08-01T08:12:56;1.73;;;1.63;;
38717;SDS011;24468;52.128;9.278;2022-08-01T08:15:21;2.03;;;1.83;;
38717;SDS011;24468;52.128;9.278;2022-08-01T08:17:47;1.67;;;1.58;;
38717;SDS011;24468;52.128;9.278;2022-08-01T08:20:12;2.03;;;1.83;;
38717;SDS011;24468;52.128;9.278;2022-08-01T08:22:38;2.05;;;1.85;;
38717;SDS011;24468;52.128;9.278;2022-08-01T08:25:04;1.70;;;1.50;;
38717;SDS011;24468;52.128;9.278;2022-08-01T08:27:31;2.47;;;1.92;;
38717;SDS011;24468;52.128;9.278;2022-08-01T08:29:57;2.03;;;1.92;;
38717;SDS011;24468;52.128;9.278;2022-08-01T08:32:22;3.03;;;2.15;;
38717;SDS011;24468;52.128;9.278;2022-08-01T08:34:48;2.65;;;2.03;;
38717;SDS011;24468;52.128;9.278;2022-08-01T08:37:14;2.97;;;2.00;;
38717;SDS011;24468;52.128;9.278;2022-08-01T08:39:40;2.58;;;2.33;;
38717;SDS011;24468;52.128;9.278;2022-08-01T08:42:06;2.40;;;1.80;;
38717;SDS011;24468;52.128;9.278;2022-08-01T08:44:33;2.35;;;2.20;;
38717;SDS011;24468;52.128;9.278;2022-08-01T08:47:00;2.80;;;2.00;;
38717;SDS011;24468;52.128;9.278;2022-08-01T08:49:30;3.10;;;1.70;;
38717;SDS011;24468;52.128;9.278;2022-08-01T08:51:57;1.92;;;1.83;;
38717;SDS011;24468;52.128;9.278;2022-08-01T08:54:26;1.60;;;1.50;;
38717;SDS011;24468;52.128;9.278;2022-08-01T08:56:54;2.63;;;1.75;;
38717;SDS011;24468;52.128;9.278;2022-08-01T08:59:21;1.90;;;1.80;;
38717;SDS011;24468;52.128;9.278;2022-08-01T09:01:49;2.10;;;1.90;;
38717;SDS011;24468;52.128;9.278;2022-08-01T09:04:15;2.58;;;1.75;;
38717;SDS011;24468;52.128;9.278;2022-08-01T09:06:40;3.67;;;2.10;;
38717;SDS011;24468;52.128;9.278;2022-08-01T09:09:09;2.25;;;2.15;;
38717;SDS011;24468;52.128;9.278;2022-08-01T09:11:35;2.08;;;1.80;;
38717;SDS011;24468;52.128;9.278;2022-08-01T09:16:37;3.22;;;1.63;;
38717;SDS011;24468;52.128;9.278;2022-08-01T09:19:11;2.90;;;1.98;;
38717;SDS011;24468;52.128;9.278;2022-08-01T09:21:37;1.90;;;1.80;;
38717;SDS011;24468;52.128;9.278;2022-08-01T09:24:03;1.92;;;1.77;;
38717;SDS011;24468;52.128;9.278;2022-08-01T09:26:37;1.77;;;1.30;;
38717;SDS011;24468;52.128;9.278;2022-08-01T09:29:04;1.77;;;1.00;;
38717;SDS011;24468;52.128;9.278;2022-08-01T09:31:42;1.33;;;1.17;;
38717;SDS011;24468;52.128;9.278;2022-08-01T09:34:09;1.23;;;1.20;;
38717;SDS011;24468;52.128;9.278;2022-08-01T09:39:15;1.88;;;0.85;;
38717;SDS011;24468;52.128;9.278;2022-08-01T09:41:42;0.93;;;0.70;;
38717;SDS011;24468;52.128;9.278;2022-08-01T09:44:08;1.27;;;0.60;;
38717;SDS011;24468;52.128;9.278;2022-08-01T09:46:33;1.35;;;0.68;;
38717;SDS011;24468;52.128;9.278;2022-08-01T09:49:00;0.60;;;0.60;;
38717;SDS011;24468;52.128;9.278;2022-08-01T09:51:30;0.70;;;0.70;;
38717;SDS011;24468;52.128;9.278;2022-08-01T09:56:35;0.90;;;0.90;;
38717;SDS011;24468;52.128;9.278;2022-08-01T09:59:10;2.30;;;0.80;;
38717;SDS011;24468;52.128;9.278;2022-08-01T10:01:46;3.22;;;1.23;;
38717;SDS011;24468;52.128;9.278;2022-08-01T10:04:14;3.03;;;0.90;;
38717;SDS011;24468;52.128;9.278;2022-08-01T10:06:49;1.70;;;1.00;;
38717;SDS011;24468;52.128;9.278;2022-08-01T10:09:29;0.75;;;0.70;;
38717;SDS011;24468;52.128;9.278;2022-08-01T10:11:56;0.60;;;0.60;;
38717;SDS011;24468;52.128;9.278;2022-08-01T10:14:25;1.13;;;0.68;;
38717;SDS011;24468;52.128;9.278;2022-08-01T10:16:52;1.17;;;0.80;;
38717;SDS011;24468;52.128;9.278;2022-08-01T10:19:24;3.13;;;1.00;;
38717;SDS011;24468;52.128;9.278;2022-08-01T10:21:52;4.85;;;1.73;;
38717;SDS011;24468;52.128;9.278;2022-08-01T10:24:20;1.00;;;1.00;;
38717;SDS011;24468;52.128;9.278;2022-08-01T10:27:02;1.35;;;1.15;;
38717;SDS011;24468;52.128;9.278;2022-08-01T10:29:40;2.53;;;1.42;;
38717;SDS011;24468;52.128;9.278;2022-08-01T10:32:10;2.25;;;1.10;;
38717;SDS011;24468;52.128;9.278;2022-08-01T10:34:36;1.75;;;0.98;;
38717;SDS011;24468;52.128;9.278;2022-08-01T10:37:03;2.70;;;1.00;;
38717;SDS011;24468;52.128;9.278;2022-08-01T10:39:30;2.88;;;0.95;;
38717;SDS011;24468;52.128;9.278;2022-08-01T10:41:57;1.00;;;0.90;;
38717;SDS011;24468;52.128;9.278;2022-08-01T10:44:24;2.28;;;1.00;;
38717;SDS011;24468;52.128;9.278;2022-08-01T10:46:55;1.10;;;1.10;;
38717;SDS011;24468;52.128;9.278;2022-08-01T10:49:29;1.17;;;1.05;;
38717;SDS011;24468;52.128;9.278;2022-08-01T10:51:59;2.67;;;1.25;;
38717;SDS011;24468;52.128;9.278;2022-08-01T10:54:25;2.70;;;1.30;;
38717;SDS011;24468;52.128;9.278;2022-08-01T10:56:51;1.92;;;0.95;;
38717;SDS011;24468;52.128;9.278;2022-08-01T10:59:27;0.80;;;0.80;;
38717;SDS011;24468;52.128;9.278;2022-08-01T11:01:57;1.23;;;0.77;;
38717;SDS011;24468;52.128;9.278;2022-08-01T11:07:21;3.30;;;1.17;;
38717;SDS011;24468;52.128;9.278;2022-08-01T11:10:04;2.78;;;0.90;;
38717;SDS011;24468;52.128;9.278;2022-08-01T11:13:09;1.88;;;0.80;;
38717;SDS011;24468;52.128;9.278;2022-08-01T11:15:36;3.88;;;1.05;;
38717;SDS011;24468;52.128;9.278;2022-08-01T11:21:00;2.88;;;1.00;;
38717;SDS011;24468;52.128;9.278;2022-08-01T11:23:28;1.17;;;1.08;;
38717;SDS011;24468;52.128;9.278;2022-08-01T11:28:20;1.20;;;1.10;;
38717;SDS011;24468;52.128;9.278;2022-08-01T11:30:50;2.67;;;1.30;;
38717;SDS011;24468;52.128;9.278;2022-08-01T11:38:49;1.30;;;1.20;;
38717;SDS011;24468;52.128;9.278;2022-08-01T11:41:31;3.80;;;1.65;;
38717;SDS011;24468;52.128;9.278;2022-08-01T11:44:04;2.50;;;1.80;;
38717;SDS011;24468;52.128;9.278;2022-08-01T11:46:48;4.65;;;1.80;;
38717;SDS011;24468;52.128;9.278;2022-08-01T11:52:16;4.55;;;2.15;;
38717;SDS011;24468;52.128;9.278;2022-08-01T11:54:54;1.65;;;1.17;;
38717;SDS011;24468;52.128;9.278;2022-08-01T11:57:26;3.15;;;1.58;;
38717;SDS011;24468;52.128;9.278;2022-08-01T12:00:00;1.67;;;1.50;;
38717;SDS011;24468;52.128;9.278;2022-08-01T12:02:39;2.15;;;1.23;;
38717;SDS011;24468;52.128;9.278;2022-08-01T12:05:06;2.30;;;1.20;;
38717;SDS011;24468;52.128;9.278;2022-08-01T12:07:34;2.00;;;1.38;;
38717;SDS011;24468;52.128;9.278;2022-08-01T12:13:22;2.30;;;1.20;;
38717;SDS011;24468;52.128;9.278;2022-08-01T12:15:35;1.67;;;1.27;;
38717;SDS011;24468;52.128;9.278;2022-08-01T12:18:06;1.95;;;1.25;;
38717;SDS011;24468;52.128;9.278;2022-08-01T12:20:36;2.17;;;1.10;;
38717;SDS011;24468;52.128;9.278;2022-08-01T12:23:09;1.58;;;1.30;;
38717;SDS011;24468;52.128;9.278;2022-08-01T12:25:37;2.45;;;1.65;;
38717;SDS011;24468;52.128;9.278;2022-08-01T12:30:39;2.50;;;1.60;;
38717;SDS011;24468;52.128;9.278;2022-08-01T12:33:06;1.80;;;1.50;;
38717;SDS011;24468;52.128;9.278;2022-08-01T12:35:35;2.75;;;1.88;;
38717;SDS011;24468;52.128;9.278;2022-08-01T12:38:07;3.15;;;1.50;;
38717;SDS011;24468;52.128;9.278;2022-08-01T12:40:44;3.60;;;2.08;;
38717;SDS011;24468;52.128;9.278;2022-08-01T12:43:16;2.75;;;2.03;;
38717;SDS011;24468;52.128;9.278;2022-08-01T12:45:45;4.80;;;2.13;;
38717;SDS011;24468;52.128;9.278;2022-08-01T12:48:14;3.47;;;2.00;;
38717;SDS011;24468;52.128;9.278;2022-08-01T12:50:46;2.03;;;1.70;;
38717;SDS011;24468;52.128;9.278;2022-08-01T12:53:15;2.90;;;1.42;;
38717;SDS011;24468;52.128;9.278;2022-08-01T12:55:45;1.88;;;1.60;;
38717;SDS011;24468;52.128;9.278;2022-08-01T12:58:14;2.25;;;1.90;;
38717;SDS011;24468;52.128;9.278;2022-08-01T13:00:42;4.22;;;1.63;;
38717;SDS011;24468;52.128;9.278;2022-08-01T13:03:11;2.25;;;1.63;;
38717;SDS011;24468;52.128;9.278;2022-08-01T13:05:45;2.60;;;1.75;;
38717;SDS011;24468;52.128;9.278;2022-08-01T13:08:21;16.13;;;2.55;;
38717;SDS011;24468;52.128;9.278;2022-08-01T13:10:48;3.90;;;1.65;;
38717;SDS011;24468;52.128;9.278;2022-08-01T13:13:16;2.53;;;1.83;;
38717;SDS011;24468;52.128;9.278;2022-08-01T13:15:44;1.77;;;1.52;;
38717;SDS011;24468;52.128;9.278;2022-08-01T13:18:29;2.28;;;2.08;;
38717;SDS011;24468;52.128;9.278;2022-08-01T13:23:40;2.75;;;2.20;;
38717;SDS011;24468;52.128;9.278;2022-08-01T13:26:41;2.55;;;1.70;;
38717;SDS011;24468;52.128;9.278;2022-08-01T13:29:12;2.15;;;1.95;;
38717;SDS011;24468;52.128;9.278;2022-08-01T13:31:45;4.97;;;2.50;;
38717;SDS011;24468;52.128;9.278;2022-08-01T13:34:11;3.95;;;2.53;;
38717;SDS011;24468;52.128;9.278;2022-08-01T13:36:37;4.32;;;2.53;;
38717;SDS011;24468;52.128;9.278;2022-08-01T13:39:04;4.68;;;2.30;;
38717;SDS011;24468;52.128;9.278;2022-08-01T13:41:49;4.25;;;2.28;;
38717;SDS011;24468;52.128;9.278;2022-08-01T13:44:15;3.95;;;1.98;;
38717;SDS011;24468;52.128;9.278;2022-08-01T13:46:41;2.35;;;1.60;;
38717;SDS011;24468;52.128;9.278;2022-08-01T13:49:09;3.60;;;2.13;;
38717;SDS011;24468;52.128;9.278;2022-08-01T13:51:36;1.73;;;1.10;;
38717;SDS011;24468;52.128;9.278;2022-08-01T13:54:02;3.70;;;1.70;;
38717;SDS011;24468;52.128;9.278;2022-08-01T13:56:29;2.60;;;1.33;;
38717;SDS011;24468;52.128;9.278;2022-08-01T13:58:55;3.03;;;1.80;;
38717;SDS011;24468;52.128;9.278;2022-08-01T14:01:21;7.53;;;2.05;;
38717;SDS011;24468;52.128;9.278;2022-08-01T14:03:48;4.70;;;1.90;;
38717;SDS011;24468;52.128;9.278;2022-08-01T14:06:13;4.95;;;2.13;;
38717;SDS011;24468;52.128;9.278;2022-08-01T14:08:41;7.38;;;2.13;;
38717;SDS011;24468;52.128;9.278;2022-08-01T14:11:07;5.32;;;2.53;;
38717;SDS011;24468;52.128;9.278;2022-08-01T14:13:33;3.40;;;2.50;;
38717;SDS011;24468;52.128;9.278;2022-08-01T14:16:02;5.35;;;2.78;;
38717;SDS011;24468;52.128;9.278;2022-08-01T14:18:27;4.28;;;2.83;;
38717;SDS011;24468;52.128;9.278;2022-08-01T14:20:53;4.68;;;2.70;;
38717;SDS011;24468;52.128;9.278;2022-08-01T14:23:18;5.80;;;3.20;;
38717;SDS011;24468;52.128;9.278;2022-08-01T14:25:44;5.97;;;3.08;;
38717;SDS011;24468;52.128;9.278;2022-08-01T14:28:09;7.10;;;3.53;;
38717;SDS011;24468;52.128;9.278;2022-08-01T14:30:35;4.07;;;2.75;;
38717;SDS011;24468;52.128;9.278;2022-08-01T14:33:01;4.60;;;2.90;;
38717;SDS011;24468;52.128;9.278;2022-08-01T14:35:27;3.97;;;2.55;;
38717;SDS011;24468;52.128;9.278;2022-08-01T14:37:53;5.57;;;3.17;;
38717;SDS011;24468;52.128;9.278;2022-08-01T14:40:18;3.85;;;3.13;;
38717;SDS011;24468;52.128;9.278;2022-08-01T14:42:44;8.38;;;3.58;;
38717;SDS011;24468;52.128;9.278;2022-08-01T14:45:10;5.10;;;2.92;;
38717;SDS011;24468;52.128;9.278;2022-08-01T14:47:39;5.40;;;3.67;;
38717;SDS011;24468;52.128;9.278;2022-08-01T14:50:06;6.57;;;2.83;;
38717;SDS011;24468;52.128;9.278;2022-08-01T14:52:35;3.78;;;2.42;;
38717;SDS011;24468;52.128;9.278;2022-08-01T14:55:02;5.63;;;2.53;;
38717;SDS011;24468;52.128;9.278;2022-08-01T14:57:30;6.30;;;3.20;;
38717;SDS011;24468;52.128;9.278;2022-08-01T14:59:56;4.85;;;2.70;;
38717;SDS011;24468;52.128;9.278;2022-08-01T15:02:24;4.68;;;3.17;;
38717;SDS011;24468;52.128;9.278;2022-08-01T15:04:50;5.47;;;3.13;;
38717;SDS011;24468;52.128;9.278;2022-08-01T15:07:16;5.72;;;3.28;;
38717;SDS011;24468;52.128;9.278;2022-08-01T15:09:43;6.35;;;2.65;;
38717;SDS011;24468;52.128;9.278;2022-08-01T15:12:09;4.82;;;2.30;;
38717;SDS011;24468;52.128;9.278;2022-08-01T15:14:35;7.35;;;3.13;;
38717;SDS011;24468;52.128;9.278;2022-08-01T15:17:22;6.72;;;2.30;;
38717;SDS011;24468;52.128;9.278;2022-08-01T15:19:52;6.20;;;2.40;;
38717;SDS011;24468;52.128;9.278;2022-08-01T15:22:19;6.07;;;2.67;;
38717;SDS011;24468;52.128;9.278;2022-08-01T15:24:46;6.93;;;2.72;;
38717;SDS011;24468;52.128;9.278;2022-08-01T15:27:12;3.45;;;2.22;;
38717;SDS011;24468;52.128;9.278;2022-08-01T15:29:38;3.70;;;1.77;;
38717;SDS011;24468;52.128;9.278;2022-08-01T15:32:04;7.10;;;2.17;;
38717;SDS011;24468;52.128;9.278;2022-08-01T15:34:31;4.28;;;1.70;;
38717;SDS011;24468;52.128;9.278;2022-08-01T15:37:01;3.75;;;2.20;;
38717;SDS011;24468;52.128;9.278;2022-08-01T15:39:28;5.85;;;2.22;;
38717;SDS011;24468;52.128;9.278;2022-08-01T15:41:57;6.70;;;2.05;;